createdAt,value
2023-03-18T00:00:07.091Z,315.00
2023-03-18T00:01:07.126Z,315.00
2023-03-18T00:02:07.138Z,315.00
2023-03-18T00:03:07.150Z,315.00
2023-03-18T00:04:07.200Z,315.00
2023-03-18T00:05:07.143Z,315.00
2023-03-18T00:06:07.157Z,315.00
2023-03-18T00:07:07.198Z,315.00
2023-03-18T00:08:07.242Z,315.00
2023-03-18T00:09:07.205Z,315.00
2023-03-18T00:10:07.234Z,315.00
2023-03-18T00:11:07.240Z,315.00
2023-03-18T00:12:07.245Z,315.00
2023-03-18T00:13:07.290Z,315.00
2023-03-18T00:14:07.267Z,315.00
2023-03-18T00:15:07.297Z,315.00
2023-03-18T00:16:07.374Z,315.00
2023-03-18T00:17:07.305Z,315.00
2023-03-18T00:18:07.329Z,315.00
2023-03-18T00:19:07.323Z,315.00
2023-03-18T00:20:07.338Z,315.00
2023-03-18T00:21:07.348Z,315.00
2023-03-18T00:22:07.378Z,315.00
2023-03-18T00:23:07.389Z,315.00
2023-03-18T00:24:07.392Z,315.00
2023-03-18T00:25:07.406Z,315.00
2023-03-18T00:26:07.466Z,315.00
2023-03-18T00:27:07.469Z,315.00
2023-03-18T00:28:07.531Z,315.00
2023-03-18T00:29:07.524Z,315.00
2023-03-18T00:30:07.466Z,315.00
2023-03-18T00:31:07.495Z,315.00
2023-03-18T00:32:07.480Z,315.00
2023-03-18T00:33:07.672Z,315.00
2023-03-18T00:34:07.502Z,315.00
2023-03-18T00:35:07.537Z,315.00
2023-03-18T00:36:07.555Z,315.00
2023-03-18T00:37:07.549Z,315.00
2023-03-18T00:38:07.627Z,315.00
2023-03-18T00:39:07.608Z,315.00
2023-03-18T00:40:07.571Z,315.00
2023-03-18T00:41:07.588Z,315.00
2023-03-18T00:42:07.600Z,315.00
2023-03-18T00:43:07.617Z,315.00
2023-03-18T00:44:07.658Z,315.00
2023-03-18T00:45:07.638Z,315.00
2023-03-18T00:46:07.638Z,315.00
2023-03-18T00:47:07.654Z,315.00
2023-03-18T00:48:07.663Z,315.00
2023-03-18T00:49:07.709Z,315.00
2023-03-18T00:50:07.709Z,315.00
2023-03-18T00:51:07.693Z,315.00
2023-03-18T00:52:07.726Z,315.00
2023-03-18T00:53:07.737Z,315.00
2023-03-18T00:54:07.766Z,315.00
2023-03-18T00:55:07.745Z,315.00
2023-03-18T00:56:07.763Z,315.00
2023-03-18T00:57:07.772Z,315.00
2023-03-18T00:58:07.790Z,315.00
2023-03-18T00:59:07.825Z,315.00
2023-03-18T01:00:07.825Z,315.00
2023-03-18T01:01:07.852Z,315.00
2023-03-18T01:02:07.910Z,315.00
2023-03-18T01:03:29.374Z,315.00
2023-03-18T01:04:29.441Z,315.00
2023-03-18T01:05:29.395Z,315.00
2023-03-18T01:06:29.404Z,315.00
2023-03-18T01:07:29.410Z,315.00
2023-03-18T01:08:29.398Z,315.00
2023-03-18T01:09:29.388Z,315.00
2023-03-18T01:10:29.829Z,315.00
2023-03-18T01:11:29.413Z,315.00
2023-03-18T01:12:29.399Z,315.00
2023-03-18T01:13:29.401Z,315.00
2023-03-18T01:14:29.392Z,315.00
2023-03-18T01:15:29.415Z,315.00
2023-03-18T01:16:29.435Z,315.00
2023-03-18T01:17:29.451Z,315.00
2023-03-18T01:18:29.463Z,302.68
2023-03-18T01:19:29.408Z,347.61
2023-03-18T01:20:29.629Z,0.00
2023-03-18T01:21:29.415Z,0.00
2023-03-18T01:22:29.424Z,0.00
2023-03-18T01:23:29.392Z,0.00
2023-03-18T01:24:29.405Z,0.00
2023-03-18T01:25:29.434Z,0.00
2023-03-18T01:26:29.428Z,0.00
2023-03-18T01:27:29.428Z,0.00
2023-03-18T01:28:29.417Z,0.00
2023-03-18T01:29:29.412Z,0.00
2023-03-18T01:30:29.629Z,0.00
2023-03-18T01:31:29.479Z,0.00
2023-03-18T01:32:29.446Z,0.00
2023-03-18T01:33:29.418Z,0.00
2023-03-18T01:34:29.431Z,0.00
2023-03-18T01:35:29.451Z,0.00
2023-03-18T01:36:29.428Z,0.00
2023-03-18T01:37:29.452Z,0.00
2023-03-18T01:38:29.577Z,0.00
2023-03-18T01:39:29.573Z,0.00
2023-03-18T01:40:29.849Z,0.00
2023-03-18T01:41:29.588Z,0.00
2023-03-18T01:42:29.601Z,0.00
2023-03-18T01:43:29.615Z,0.00
2023-03-18T01:44:29.620Z,0.00
2023-03-18T01:45:29.701Z,0.00
2023-03-18T01:46:29.648Z,0.00
2023-03-18T01:47:29.674Z,0.00
2023-03-18T01:48:29.677Z,0.00
2023-03-18T01:49:29.691Z,0.00
2023-03-18T01:50:30.123Z,0.00
2023-03-18T01:51:29.723Z,0.00
2023-03-18T01:52:29.718Z,0.00
2023-03-18T01:53:29.734Z,0.00
2023-03-18T01:54:29.755Z,0.00
2023-03-18T01:55:29.771Z,0.00
2023-03-18T01:56:29.784Z,0.00
2023-03-18T01:57:29.791Z,0.00
2023-03-18T01:58:29.787Z,0.00
2023-03-18T01:59:29.848Z,0.00
2023-03-18T02:00:30.041Z,0.00
2023-03-18T02:01:29.885Z,0.00
2023-03-18T02:02:29.862Z,0.00
2023-03-18T02:03:29.844Z,0.00
2023-03-18T02:04:29.866Z,0.00
2023-03-18T02:05:29.873Z,0.00
2023-03-18T02:06:29.906Z,0.00
2023-03-18T02:07:29.952Z,0.00
2023-03-18T02:08:29.920Z,0.00
2023-03-18T02:09:29.946Z,0.00
2023-03-18T02:10:30.103Z,0.00
2023-03-18T02:11:29.951Z,0.00
2023-03-18T02:12:29.991Z,334.99
2023-03-18T02:13:29.983Z,315.00
2023-03-18T02:14:29.990Z,315.00
2023-03-18T02:15:29.990Z,315.00
2023-03-18T02:16:30.059Z,315.00
2023-03-18T02:17:30.039Z,315.00
2023-03-18T02:18:30.112Z,315.00
2023-03-18T02:19:30.056Z,315.00
2023-03-18T02:20:30.281Z,315.00
2023-03-18T02:21:30.094Z,315.00
2023-03-18T02:22:30.094Z,315.00
2023-03-18T02:23:30.136Z,307.13
2023-03-18T02:24:30.122Z,135.00
2023-03-18T02:25:30.134Z,135.00
2023-03-18T02:26:30.148Z,135.00
2023-03-18T02:27:30.151Z,135.00
2023-03-18T02:28:30.169Z,135.00
2023-03-18T02:29:30.206Z,135.00
2023-03-18T02:30:30.422Z,132.84
2023-03-18T02:31:30.203Z,47.74
2023-03-18T02:32:30.228Z,0.00
2023-03-18T02:33:30.248Z,0.00
2023-03-18T02:34:30.230Z,0.00
2023-03-18T02:35:30.319Z,0.00
2023-03-18T02:36:30.252Z,0.00
2023-03-18T02:37:30.259Z,0.00
2023-03-18T02:38:30.290Z,0.00
2023-03-18T02:39:30.290Z,0.00
2023-03-18T02:40:30.603Z,0.00
2023-03-18T02:41:30.317Z,0.00
2023-03-18T02:42:30.363Z,0.00
2023-03-18T02:43:30.345Z,0.00
2023-03-18T02:44:30.374Z,0.00
2023-03-18T02:45:30.378Z,0.00
2023-03-18T02:46:30.477Z,0.00
2023-03-18T02:47:30.394Z,0.00
2023-03-18T02:48:30.423Z,0.00
2023-03-18T02:49:30.420Z,0.00
2023-03-18T02:50:30.810Z,0.00
2023-03-18T02:51:30.430Z,323.41
2023-03-18T02:52:30.459Z,315.00
2023-03-18T02:53:30.467Z,315.00
2023-03-18T02:54:30.488Z,315.00
2023-03-18T02:55:30.506Z,315.00
2023-03-18T02:56:30.529Z,315.00
2023-03-18T02:57:30.514Z,315.00
2023-03-18T02:58:30.526Z,315.00
2023-03-18T02:59:30.534Z,315.00
2023-03-18T03:00:30.879Z,315.00
2023-03-18T03:01:30.634Z,315.00
2023-03-18T03:02:30.719Z,315.00
2023-03-18T03:03:30.667Z,315.00
2023-03-18T03:04:30.602Z,315.00
2023-03-18T03:05:30.602Z,315.00
2023-03-18T03:06:30.684Z,6.37
2023-03-18T03:07:30.634Z,0.00
2023-03-18T03:08:30.631Z,0.00
2023-03-18T03:09:30.659Z,0.00
2023-03-18T03:10:31.048Z,355.98
2023-03-18T03:11:30.689Z,0.00
2023-03-18T03:12:30.701Z,0.00
2023-03-18T03:13:30.710Z,335.91
2023-03-18T03:14:30.734Z,315.00
2023-03-18T03:15:30.825Z,315.00
2023-03-18T03:16:30.740Z,319.78
2023-03-18T03:17:30.745Z,90.00
2023-03-18T03:18:30.813Z,55.40
2023-03-18T03:19:30.775Z,315.00
2023-03-18T03:20:30.946Z,315.00
2023-03-18T03:21:30.812Z,315.00
2023-03-18T03:22:30.829Z,315.00
2023-03-18T03:23:30.816Z,332.08
2023-03-18T03:24:30.835Z,354.96
2023-03-18T03:25:30.856Z,0.00
2023-03-18T03:26:30.886Z,284.62
2023-03-18T03:27:30.876Z,350.59
2023-03-18T03:28:30.899Z,341.09
2023-03-18T03:29:30.897Z,342.26
2023-03-18T03:30:31.260Z,329.93
2023-03-18T03:31:30.968Z,358.01
2023-03-18T03:32:30.964Z,358.46
2023-03-18T03:33:30.940Z,324.68
2023-03-18T03:34:30.955Z,322.76
2023-03-18T03:35:31.139Z,309.14
2023-03-18T03:36:30.970Z,345.82
2023-03-18T03:37:31.000Z,339.82
2023-03-18T03:38:30.988Z,347.38
2023-03-18T03:39:31.063Z,297.28
2023-03-18T03:40:31.325Z,300.95
2023-03-18T03:41:31.224Z,348.19
2023-03-18T03:42:31.250Z,357.47
2023-03-18T03:43:31.233Z,347.90
2023-03-18T03:44:31.289Z,354.28
2023-03-18T03:45:31.229Z,332.69
2023-03-18T03:46:31.253Z,344.67
2023-03-18T03:47:31.284Z,333.75
2023-03-18T03:48:31.265Z,349.61
2023-03-18T03:49:31.230Z,18.72
2023-03-18T03:50:31.530Z,0.00
2023-03-18T03:51:31.258Z,333.10
2023-03-18T03:52:31.256Z,322.39
2023-03-18T03:53:31.263Z,347.51
2023-03-18T03:54:31.262Z,352.19
2023-03-18T03:55:31.258Z,317.74
2023-03-18T03:56:31.252Z,352.69
2023-03-18T03:57:31.305Z,355.38
2023-03-18T03:58:31.265Z,315.00
2023-03-18T03:59:31.270Z,346.52
2023-03-18T04:00:31.569Z,315.00
2023-03-18T04:01:31.268Z,346.14
2023-03-18T04:02:31.338Z,356.34
2023-03-18T04:03:31.315Z,320.54
2023-03-18T04:04:31.395Z,359.72
2023-03-18T04:05:31.334Z,336.00
2023-03-18T04:06:31.375Z,310.58
2023-03-18T04:07:31.376Z,329.80
2023-03-18T04:08:31.502Z,334.08
2023-03-18T04:09:31.467Z,337.47
2023-03-18T04:10:31.784Z,338.70
2023-03-18T04:11:31.502Z,331.68
2023-03-18T04:12:31.494Z,315.00
2023-03-18T04:13:31.526Z,350.87
2023-03-18T04:14:31.525Z,359.57
2023-03-18T04:15:31.483Z,315.00
2023-03-18T04:16:31.514Z,323.70
2023-03-18T04:17:31.517Z,315.00
2023-03-18T04:18:31.591Z,320.34
2023-03-18T04:19:31.591Z,326.90
2023-03-18T04:20:31.794Z,315.00
2023-03-18T04:21:31.577Z,315.00
2023-03-18T04:22:31.589Z,315.00
2023-03-18T04:23:31.577Z,326.22
2023-03-18T04:24:31.574Z,347.96
2023-03-18T04:25:31.619Z,354.91
2023-03-18T04:26:31.572Z,0.00
2023-03-18T04:27:31.603Z,357.44
2023-03-18T04:28:31.606Z,315.00
2023-03-18T04:29:31.631Z,315.00
2023-03-18T04:30:31.843Z,326.25
2023-03-18T04:31:31.652Z,315.00
2023-03-18T04:32:31.665Z,334.92
2023-03-18T04:33:31.674Z,0.00
2023-03-18T04:34:31.672Z,339.91
2023-03-18T04:35:31.706Z,324.30
2023-03-18T04:36:31.750Z,316.36
2023-03-18T04:37:31.716Z,347.23
2023-03-18T04:38:31.718Z,315.00
2023-03-18T04:39:31.720Z,315.00
2023-03-18T04:40:31.972Z,315.00
2023-03-18T04:41:31.752Z,315.00
2023-03-18T04:42:31.786Z,315.00
2023-03-18T04:43:31.780Z,315.00
2023-03-18T04:44:31.781Z,315.00
2023-03-18T04:45:31.806Z,315.00
2023-03-18T04:46:31.864Z,315.00
2023-03-18T04:47:31.818Z,315.00
2023-03-18T04:48:31.874Z,315.00
2023-03-18T04:49:31.860Z,324.50
2023-03-18T04:50:32.218Z,0.00
2023-03-18T04:51:31.879Z,0.00
2023-03-18T04:52:31.987Z,348.21
2023-03-18T04:53:31.976Z,0.00
2023-03-18T04:54:32.006Z,327.66
2023-03-18T04:55:32.292Z,315.00
2023-03-18T04:56:32.004Z,315.00
2023-03-18T04:57:32.029Z,320.90
2023-03-18T04:58:32.029Z,315.00
2023-03-18T04:59:32.005Z,323.97
2023-03-18T05:00:32.076Z,33.76
2023-03-18T05:01:32.076Z,357.81
2023-03-18T05:02:32.096Z,353.33
2023-03-18T05:03:32.145Z,350.34
2023-03-18T05:04:32.112Z,356.53
2023-03-18T05:05:32.303Z,327.62
2023-03-18T05:06:32.102Z,315.00
2023-03-18T05:07:32.141Z,315.00
2023-03-18T05:08:32.156Z,315.00
2023-03-18T05:09:32.167Z,315.00
2023-03-18T05:10:32.194Z,315.00
2023-03-18T05:11:32.179Z,315.00
2023-03-18T05:12:32.176Z,315.00
2023-03-18T05:13:32.244Z,315.00
2023-03-18T05:14:32.211Z,315.00
2023-03-18T05:15:32.549Z,315.00
2023-03-18T05:16:32.300Z,315.00
2023-03-18T05:17:32.201Z,315.00
2023-03-18T05:18:32.206Z,315.00
2023-03-18T05:19:32.202Z,315.00
2023-03-18T05:20:32.329Z,315.00
2023-03-18T05:21:32.323Z,315.00
2023-03-18T05:22:32.427Z,315.00
2023-03-18T05:23:32.484Z,315.00
2023-03-18T05:24:32.449Z,315.00
2023-03-18T05:25:32.872Z,315.00
2023-03-18T05:26:32.490Z,315.00
2023-03-18T05:27:32.519Z,315.00
2023-03-18T05:28:32.472Z,315.00
2023-03-18T05:29:32.490Z,315.00
2023-03-18T05:30:32.449Z,315.00
2023-03-18T05:31:32.525Z,315.00
2023-03-18T05:32:32.519Z,315.00
2023-03-18T05:33:32.467Z,315.00
2023-03-18T05:34:32.490Z,315.00
2023-03-18T05:35:32.839Z,315.00
2023-03-18T05:36:32.585Z,332.07
2023-03-18T05:37:32.597Z,333.39
2023-03-18T05:38:32.605Z,18.96
2023-03-18T05:39:32.614Z,299.46
2023-03-18T05:40:32.642Z,276.21
2023-03-18T05:41:32.669Z,274.81
2023-03-18T05:42:33.190Z,270.91
2023-03-18T05:43:32.703Z,289.27
2023-03-18T05:44:32.687Z,282.46
2023-03-18T05:45:33.031Z,281.47
2023-03-18T05:46:32.804Z,300.76
2023-03-18T05:47:32.732Z,289.04
2023-03-18T05:48:32.840Z,286.76
2023-03-18T05:49:32.838Z,315.00
2023-03-18T05:50:32.854Z,315.00
2023-03-18T05:51:32.878Z,318.56
2023-03-18T05:52:32.865Z,295.10
2023-03-18T05:53:32.833Z,279.53
2023-03-18T05:54:32.872Z,286.61
2023-03-18T05:55:33.188Z,280.05
2023-03-18T05:56:32.937Z,271.84
2023-03-18T05:57:32.951Z,304.30
2023-03-18T05:58:32.925Z,283.27
2023-03-18T05:59:32.978Z,279.79
2023-03-18T06:00:32.956Z,292.83
2023-03-18T06:01:33.021Z,289.84
2023-03-18T06:02:32.962Z,293.67
2023-03-18T06:03:32.973Z,310.07
2023-03-18T06:04:32.975Z,304.44
2023-03-18T06:05:33.129Z,283.44
2023-03-18T06:06:33.152Z,299.40
2023-03-18T06:07:33.173Z,315.00
2023-03-18T06:08:33.171Z,315.00
2023-03-18T06:09:33.172Z,315.00
2023-03-18T06:10:33.168Z,315.00
2023-03-18T06:11:33.157Z,315.00
2023-03-18T06:12:33.165Z,315.00
2023-03-18T06:13:33.167Z,315.00
2023-03-18T06:14:33.204Z,315.00
2023-03-18T06:15:33.597Z,315.00
2023-03-18T06:16:33.199Z,315.00
2023-03-18T06:17:33.158Z,315.00
2023-03-18T06:18:33.211Z,315.00
2023-03-18T06:19:33.206Z,315.00
2023-03-18T06:20:33.191Z,315.00
2023-03-18T06:21:33.277Z,315.00
2023-03-18T06:22:33.173Z,315.00
2023-03-18T06:23:33.192Z,315.00
2023-03-18T06:24:33.191Z,315.00
2023-03-18T06:25:33.400Z,315.00
2023-03-18T06:26:33.196Z,315.00
2023-03-18T06:27:33.218Z,315.00
2023-03-18T06:28:33.198Z,318.84
2023-03-18T06:29:33.215Z,319.59
2023-03-18T06:30:33.273Z,315.00
2023-03-18T06:31:33.219Z,315.00
2023-03-18T06:32:33.302Z,315.00
2023-03-18T06:33:33.211Z,315.00
2023-03-18T06:34:33.209Z,315.00
2023-03-18T06:35:33.712Z,315.00
2023-03-18T06:36:33.218Z,315.00
2023-03-18T06:37:33.207Z,315.00
2023-03-18T06:38:33.220Z,315.00
2023-03-18T06:39:33.223Z,315.00
2023-03-18T06:40:33.237Z,315.00
2023-03-18T06:41:33.379Z,315.00
2023-03-18T06:42:33.222Z,315.00
2023-03-18T06:43:33.251Z,315.00
2023-03-18T06:44:33.242Z,315.00
2023-03-18T06:45:33.528Z,315.00
2023-03-18T06:46:33.311Z,315.00
2023-03-18T06:47:33.263Z,315.00
2023-03-18T06:48:33.273Z,315.00
2023-03-18T06:49:33.301Z,315.00
2023-03-18T06:50:33.321Z,315.00
2023-03-18T06:51:33.340Z,315.00
2023-03-18T06:52:33.390Z,315.00
2023-03-18T06:53:33.341Z,315.00
2023-03-18T06:54:33.365Z,27.64
2023-03-18T06:55:33.804Z,0.00
2023-03-18T06:56:33.397Z,0.00
2023-03-18T06:57:33.411Z,0.00
2023-03-18T06:58:33.390Z,0.00
2023-03-18T06:59:33.422Z,0.00
2023-03-18T07:00:33.441Z,0.00
2023-03-18T07:01:33.480Z,0.00
2023-03-18T07:02:33.473Z,0.00
2023-03-18T07:03:33.462Z,0.00
2023-03-18T07:04:33.547Z,0.00
2023-03-18T07:05:33.941Z,0.00
2023-03-18T07:06:33.504Z,0.00
2023-03-18T07:07:33.501Z,0.00
2023-03-18T07:08:33.565Z,0.00
2023-03-18T07:09:33.551Z,0.00
2023-03-18T07:10:33.582Z,0.00
2023-03-18T07:11:33.557Z,0.00
2023-03-18T07:12:33.582Z,0.00
2023-03-18T07:13:33.596Z,0.00
2023-03-18T07:14:33.598Z,0.00
2023-03-18T07:15:33.832Z,0.00
2023-03-18T07:16:33.654Z,0.00
2023-03-18T07:17:33.646Z,0.00
2023-03-18T07:18:33.723Z,0.00
2023-03-18T07:19:33.667Z,0.00
2023-03-18T07:20:33.697Z,0.00
2023-03-18T07:21:33.685Z,0.00
2023-03-18T07:22:33.718Z,0.00
2023-03-18T07:23:33.745Z,356.03
2023-03-18T07:24:33.709Z,315.00
2023-03-18T07:25:34.046Z,315.00
2023-03-18T07:26:33.746Z,315.00
2023-03-18T07:27:33.747Z,315.00
2023-03-18T07:28:33.773Z,315.00
2023-03-18T07:29:33.806Z,342.05
2023-03-18T07:30:33.784Z,0.00
2023-03-18T07:31:33.863Z,0.00
2023-03-18T07:32:33.847Z,0.00
2023-03-18T07:33:33.821Z,0.00
2023-03-18T07:34:33.845Z,0.00
2023-03-18T07:35:34.159Z,0.00
2023-03-18T07:36:33.874Z,0.00
2023-03-18T07:37:33.869Z,0.00
2023-03-18T07:38:33.891Z,0.00
2023-03-18T07:39:33.915Z,0.00
2023-03-18T07:40:33.920Z,0.00
2023-03-18T07:41:36.042Z,0.00
2023-03-18T07:42:33.969Z,0.00
2023-03-18T07:43:33.905Z,0.00
2023-03-18T07:44:33.942Z,333.28
2023-03-18T07:45:34.165Z,282.95
2023-03-18T07:46:34.022Z,315.00
2023-03-18T07:47:33.929Z,315.00
2023-03-18T07:48:33.939Z,315.00
2023-03-18T07:49:33.928Z,315.00
2023-03-18T07:50:33.959Z,315.00
2023-03-18T07:51:33.951Z,315.00
2023-03-18T07:52:33.934Z,345.93
2023-03-18T07:53:33.946Z,332.31
2023-03-18T07:54:33.953Z,336.91
2023-03-18T07:55:34.526Z,0.00
2023-03-18T07:56:34.128Z,0.00
2023-03-18T07:57:33.918Z,0.00
2023-03-18T07:58:33.967Z,358.69
2023-03-18T07:59:33.952Z,315.00
2023-03-18T08:00:33.967Z,315.00
2023-03-18T08:01:33.985Z,343.78
2023-03-18T08:02:33.972Z,349.03
2023-03-18T08:03:34.064Z,359.06
2023-03-18T08:04:34.013Z,357.79
2023-03-18T08:05:34.355Z,315.00
2023-03-18T08:06:33.945Z,334.99
2023-03-18T08:07:33.970Z,334.35
2023-03-18T08:08:33.967Z,315.00
2023-03-18T08:09:33.959Z,315.00
2023-03-18T08:10:34.013Z,315.00
2023-03-18T08:11:33.989Z,289.75
2023-03-18T08:12:51.028Z,234.48
2023-03-18T08:13:33.959Z,135.00
2023-03-18T08:14:33.997Z,135.00
2023-03-18T08:15:34.609Z,332.78
2023-03-18T08:16:34.099Z,340.82
2023-03-18T08:17:33.966Z,339.55
2023-03-18T08:18:33.977Z,343.76
2023-03-18T08:19:33.974Z,323.26
2023-03-18T08:20:34.019Z,315.00
2023-03-18T08:21:34.015Z,315.00
2023-03-18T08:22:34.021Z,315.00
2023-03-18T08:23:33.957Z,315.00
2023-03-18T08:24:33.974Z,320.58
2023-03-18T08:25:34.244Z,311.89
2023-03-18T08:26:33.987Z,315.00
2023-03-18T08:27:34.000Z,315.00
2023-03-18T08:28:34.027Z,346.03
2023-03-18T08:29:34.007Z,315.00
2023-03-18T08:30:34.003Z,324.80
2023-03-18T08:31:34.041Z,315.00
2023-03-18T08:32:34.125Z,342.38
2023-03-18T08:33:34.020Z,1.08
2023-03-18T08:34:34.011Z,351.14
2023-03-18T08:35:34.309Z,315.00
2023-03-18T08:36:33.991Z,315.00
2023-03-18T08:37:34.040Z,315.00
2023-03-18T08:38:33.999Z,315.00
2023-03-18T08:39:33.997Z,315.00
2023-03-18T08:40:33.990Z,315.00
2023-03-18T08:41:33.991Z,315.00
2023-03-18T08:42:34.033Z,315.00
2023-03-18T08:43:34.025Z,315.00
2023-03-18T08:44:33.991Z,315.00
2023-03-18T08:45:34.497Z,315.00
2023-03-18T08:46:34.033Z,315.00
2023-03-18T08:47:34.034Z,315.00
2023-03-18T08:48:34.038Z,315.00
2023-03-18T08:49:34.044Z,315.00
2023-03-18T08:50:34.053Z,315.00
2023-03-18T08:51:34.050Z,315.00
2023-03-18T08:52:34.047Z,315.00
2023-03-18T08:53:34.062Z,315.00
2023-03-18T08:54:34.051Z,315.00
2023-03-18T08:55:34.362Z,315.00
2023-03-18T08:56:34.044Z,315.00
2023-03-18T08:57:34.110Z,315.00
2023-03-18T08:58:34.030Z,315.00
2023-03-18T08:59:34.048Z,315.00
2023-03-18T09:00:34.041Z,315.00
2023-03-18T09:01:34.108Z,315.00
2023-03-18T09:02:34.077Z,321.98
2023-03-18T09:03:34.046Z,343.32
2023-03-18T09:04:34.040Z,315.00
2023-03-18T09:05:34.518Z,315.00
2023-03-18T09:06:34.053Z,342.26
2023-03-18T09:07:34.074Z,350.76
2023-03-18T09:08:34.070Z,315.00
2023-03-18T09:09:43.440Z,315.00
2023-03-18T09:10:34.074Z,333.57
2023-03-18T09:11:34.033Z,315.00
2023-03-18T09:12:34.072Z,315.01
2023-03-18T09:13:34.099Z,18.48
2023-03-18T09:14:34.060Z,345.68
2023-03-18T09:15:34.497Z,315.00
2023-03-18T09:16:34.070Z,315.00
2023-03-18T09:17:51.028Z,315.00
2023-03-18T09:18:34.080Z,315.00
2023-03-18T09:19:34.080Z,315.00
2023-03-18T09:20:34.085Z,315.00
2023-03-18T09:21:34.067Z,315.00
2023-03-18T09:22:34.080Z,322.42
2023-03-18T09:23:34.117Z,315.00
2023-03-18T09:24:34.058Z,317.21
2023-03-18T09:25:34.581Z,340.25
2023-03-18T09:26:37.133Z,308.48
2023-03-18T09:27:34.076Z,180.25
2023-03-18T09:28:34.148Z,315.00
2023-03-18T09:29:34.093Z,314.52
2023-03-18T09:30:34.173Z,225.00
2023-03-18T09:31:34.094Z,236.00
2023-03-18T09:32:34.091Z,315.00
2023-03-18T09:33:34.112Z,315.62
2023-03-18T09:34:34.097Z,135.00
2023-03-18T09:35:34.450Z,135.00
2023-03-18T09:36:34.085Z,135.00
2023-03-18T09:37:34.059Z,315.00
2023-03-18T09:38:34.062Z,315.00
2023-03-18T09:39:34.096Z,315.00
2023-03-18T09:40:35.821Z,328.52
2023-03-18T09:41:34.107Z,0.00
2023-03-18T09:42:34.104Z,317.07
2023-03-18T09:43:34.096Z,315.00
2023-03-18T09:44:34.086Z,320.79
2023-03-18T09:45:34.523Z,348.21
2023-03-18T09:46:34.232Z,0.00
2023-03-18T09:47:34.124Z,324.76
2023-03-18T09:48:34.130Z,315.00
2023-03-18T09:49:34.108Z,315.00
2023-03-18T09:50:34.104Z,326.78
2023-03-18T09:51:34.118Z,346.74
2023-03-18T09:52:34.110Z,54.08
2023-03-18T09:53:34.117Z,327.82
2023-03-18T09:54:34.135Z,346.55
2023-03-18T09:55:34.377Z,319.60
2023-03-18T09:56:34.120Z,345.86
2023-03-18T09:57:34.102Z,0.00
2023-03-18T09:58:34.121Z,0.00
2023-03-18T09:59:34.139Z,342.00
2023-03-18T10:00:34.289Z,2.27
2023-03-18T10:01:34.150Z,11.94
2023-03-18T10:02:34.129Z,350.12
2023-03-18T10:03:34.198Z,20.19
2023-03-18T10:04:34.132Z,325.42
2023-03-18T10:05:34.604Z,314.89
2023-03-18T10:06:34.158Z,279.66
2023-03-18T10:07:34.131Z,326.56
2023-03-18T10:08:36.243Z,351.48
2023-03-18T10:09:34.112Z,349.94
2023-03-18T10:10:34.147Z,329.36
2023-03-18T10:11:34.160Z,334.31
2023-03-18T10:12:34.122Z,334.88
2023-03-18T10:13:34.131Z,333.04
2023-03-18T10:14:36.151Z,4.92
2023-03-18T10:15:34.524Z,327.13
2023-03-18T10:16:34.162Z,212.14
2023-03-18T10:17:34.138Z,278.86
2023-03-18T10:18:34.129Z,321.68
2023-03-18T10:19:34.196Z,355.04
2023-03-18T10:20:34.150Z,181.10
2023-03-18T10:21:34.137Z,340.00
2023-03-18T10:22:34.147Z,346.77
2023-03-18T10:23:34.138Z,331.36
2023-03-18T10:24:34.160Z,14.90
2023-03-18T10:25:34.592Z,0.00
2023-03-18T10:26:34.134Z,324.36
2023-03-18T10:27:34.164Z,0.00
2023-03-18T10:28:34.160Z,348.22
2023-03-18T10:29:34.158Z,325.34
2023-03-18T10:30:34.150Z,358.71
2023-03-18T10:31:34.277Z,318.08
2023-03-18T10:32:48.712Z,350.42
2023-03-18T10:33:34.198Z,348.91
2023-03-18T10:34:34.157Z,8.30
2023-03-18T10:35:34.499Z,231.86
2023-03-18T10:36:34.152Z,316.47
2023-03-18T10:37:34.160Z,293.51
2023-03-18T10:38:34.198Z,316.89
2023-03-18T10:39:34.162Z,317.22
2023-03-18T10:40:34.150Z,313.22
2023-03-18T10:41:34.172Z,315.00
2023-03-18T10:42:34.186Z,311.22
2023-03-18T10:43:34.190Z,334.38
2023-03-18T10:44:34.197Z,197.37
2023-03-18T10:45:34.394Z,128.39
2023-03-18T10:46:34.332Z,331.60
2023-03-18T10:47:34.258Z,135.00
2023-03-18T10:48:34.183Z,130.41
2023-03-18T10:49:34.480Z,332.62
2023-03-18T10:50:34.789Z,318.98
2023-03-18T10:51:34.197Z,255.53
2023-03-18T10:52:34.203Z,314.45
2023-03-18T10:53:34.182Z,63.72
2023-03-18T10:54:34.219Z,135.00
2023-03-18T10:55:34.209Z,282.00
2023-03-18T10:56:34.185Z,315.00
2023-03-18T10:57:34.197Z,111.77
2023-03-18T10:58:34.200Z,255.58
2023-03-18T10:59:34.218Z,322.24
2023-03-18T11:00:34.655Z,329.57
2023-03-18T11:01:34.193Z,227.22
2023-03-18T11:02:34.234Z,321.46
2023-03-18T11:03:34.210Z,212.67
2023-03-18T11:04:34.209Z,156.94
2023-03-18T11:05:34.630Z,315.00
2023-03-18T11:06:34.210Z,329.32
2023-03-18T11:07:34.208Z,326.51
2023-03-18T11:08:34.244Z,170.86
2023-03-18T11:09:34.222Z,225.00
2023-03-18T11:10:34.696Z,190.32
2023-03-18T11:11:34.238Z,162.27
2023-03-18T11:12:34.219Z,339.80
2023-03-18T11:13:34.189Z,315.00
2023-03-18T11:14:34.204Z,294.82
2023-03-18T11:15:34.200Z,200.07
2023-03-18T11:16:34.311Z,286.97
2023-03-18T11:17:34.229Z,317.04
2023-03-18T11:18:34.256Z,282.21
2023-03-18T11:19:34.233Z,302.33
2023-03-18T11:20:34.453Z,304.63
2023-03-18T11:21:34.235Z,348.10
2023-03-18T11:22:34.236Z,309.21
2023-03-18T11:23:34.202Z,320.59
2023-03-18T11:24:34.257Z,315.00
2023-03-18T11:25:34.242Z,316.44
2023-03-18T11:26:34.264Z,315.00
2023-03-18T11:27:34.224Z,346.32
2023-03-18T11:28:34.235Z,359.26
2023-03-18T11:29:34.268Z,337.29
2023-03-18T11:30:35.071Z,316.43
2023-03-18T11:31:34.285Z,315.00
2023-03-18T11:32:34.422Z,315.00
2023-03-18T11:33:34.244Z,346.55
2023-03-18T11:34:34.260Z,323.13
2023-03-18T11:35:34.257Z,295.65
2023-03-18T11:36:34.229Z,328.05
2023-03-18T11:37:34.262Z,356.61
2023-03-18T11:38:34.252Z,358.93
2023-03-18T11:39:34.252Z,316.29
2023-03-18T11:40:34.618Z,268.48
2023-03-18T11:41:34.267Z,316.79
2023-03-18T11:42:34.269Z,314.47
2023-03-18T11:43:34.291Z,320.04
2023-03-18T11:44:34.252Z,308.82
2023-03-18T11:45:34.242Z,345.58
2023-03-18T11:46:34.292Z,317.22
2023-03-18T11:47:34.290Z,311.70
2023-03-18T11:48:34.264Z,315.00
2023-03-18T11:49:34.257Z,315.00
2023-03-18T11:50:34.625Z,357.49
2023-03-18T11:51:34.227Z,331.30
2023-03-18T11:52:34.241Z,278.68
2023-03-18T11:53:34.272Z,335.24
2023-03-18T11:54:34.268Z,315.00
2023-03-18T11:55:34.545Z,270.62
2023-03-18T11:56:34.234Z,298.73
2023-03-18T11:57:34.243Z,315.00
2023-03-18T11:58:34.283Z,329.42
2023-03-18T11:59:34.274Z,345.32
2023-03-18T12:00:34.262Z,345.47
2023-03-18T12:01:34.278Z,330.78
2023-03-18T12:02:34.258Z,314.47
2023-03-18T12:03:34.316Z,329.90
2023-03-18T12:04:34.294Z,315.00
2023-03-18T12:05:34.592Z,315.00
2023-03-18T12:06:34.298Z,315.00
2023-03-18T12:07:36.390Z,339.55
2023-03-18T12:08:34.265Z,315.00
2023-03-18T12:09:34.263Z,324.90
2023-03-18T12:10:34.595Z,331.52
2023-03-18T12:11:34.295Z,347.88
2023-03-18T12:12:34.463Z,322.89
2023-03-18T12:13:36.336Z,331.85
2023-03-18T12:14:34.296Z,353.88
2023-03-18T12:15:34.616Z,340.97
2023-03-18T12:16:34.337Z,327.92
2023-03-18T12:17:34.313Z,342.72
2023-03-18T12:18:34.356Z,315.00
2023-03-18T12:19:34.289Z,315.00
2023-03-18T12:20:34.909Z,315.00
2023-03-18T12:21:34.291Z,342.95
2023-03-18T12:22:34.324Z,315.00
2023-03-18T12:23:34.322Z,286.42
2023-03-18T12:24:34.359Z,135.00
2023-03-18T12:25:34.311Z,315.00
2023-03-18T12:26:34.293Z,330.92
2023-03-18T12:27:34.328Z,328.69
2023-03-18T12:28:34.286Z,306.66
2023-03-18T12:29:34.289Z,336.76
2023-03-18T12:30:34.559Z,344.97
2023-03-18T12:31:34.290Z,331.61
2023-03-18T12:32:34.375Z,295.99
2023-03-18T12:33:34.309Z,0.00
2023-03-18T12:34:34.317Z,356.04
2023-03-18T12:35:34.533Z,317.50
2023-03-18T12:36:34.338Z,331.51
2023-03-18T12:37:34.363Z,333.77